THY7KG LTBS-EPLB
Flight info
| Callsign | THY7KG |
|---|---|
| Flight time | 2h 44m |
| Altitude | 36000 |
| Route | KEKIK UN127 LMO UN128 RUGAS/N0454F350 DCT VELBA T343 DOTAM/N0453F360 Y94 OGOTA T228 UTEKA/N0452F350 DCT RUMUK/K0837F360 M977 DIBED/N0452F360 M977 OSMAT L621 OGVET |
| Aircraft | A320/M-SDE3FGHIRWY/LB1 |
Departure
| Time | 2026-04-24 05:40 |
|---|---|
| Airport | Dalaman International Airport (LTBS) |
Arrival
| Time | 2026-04-24 08:25 |
|---|---|
| Airport | Lublin Airport (EPLB) |
| Time | Latitude | Longitude | Altitude | Speed | Heading |
|---|---|---|---|---|---|
| 2026-04-24 05:03 | 36.72224 | 28.79043 | 12 ft | 0 kts | 285° |
| 2026-04-24 05:12 | 36.72224 | 28.79044 | 12 ft | 0 kts | 285° |
| 2026-04-24 05:26 | 36.72223 | 28.79047 | 12 ft | 3 kts | 284° |
| 2026-04-24 05:26 | 36.72217 | 28.79080 | 12 ft | 4 kts | 274° |
| 2026-04-24 05:26 | 36.72219 | 28.79112 | 12 ft | 4 kts | 246° |
| 2026-04-24 05:27 | 36.72231 | 28.79130 | 14 ft | 1 kts | 197° |
| 2026-04-24 05:27 | 36.72231 | 28.79131 | 14 ft | 0 kts | 197° |
| 2026-04-24 05:30 | 36.72231 | 28.79130 | 14 ft | 0 kts | 197° |
| 2026-04-24 05:31 | 36.72224 | 28.79128 | 13 ft | 2 kts | 197° |
| 2026-04-24 05:31 | 36.72205 | 28.79120 | 13 ft | 4 kts | 197° |
| 2026-04-24 05:31 | 36.72164 | 28.79105 | 12 ft | 7 kts | 194° |
| 2026-04-24 05:31 | 36.72113 | 28.79089 | 12 ft | 8 kts | 194° |
| 2026-04-24 05:32 | 36.72053 | 28.79069 | 12 ft | 10 kts | 195° |
| 2026-04-24 05:32 | 36.71984 | 28.79045 | 12 ft | 11 kts | 195° |
| 2026-04-24 05:32 | 36.71906 | 28.79018 | 12 ft | 12 kts | 195° |
| 2026-04-24 05:32 | 36.71818 | 28.78987 | 12 ft | 14 kts | 195° |
| 2026-04-24 05:33 | 36.71736 | 28.78959 | 12 ft | 11 kts | 195° |
| 2026-04-24 05:33 | 36.71657 | 28.78932 | 12 ft | 12 kts | 195° |
| 2026-04-24 05:33 | 36.71569 | 28.78901 | 12 ft | 14 kts | 195° |
| 2026-04-24 05:34 | 36.71390 | 28.78839 | 12 ft | 10 kts | 195° |
| 2026-04-24 05:34 | 36.71349 | 28.78891 | 15 ft | 10 kts | 105° |
| 2026-04-24 05:34 | 36.71331 | 28.78984 | 13 ft | 12 kts | 103° |
| 2026-04-24 05:34 | 36.71265 | 28.79028 | 13 ft | 13 kts | 198° |
| 2026-04-24 05:35 | 36.71184 | 28.78994 | 13 ft | 13 kts | 196° |
| 2026-04-24 05:35 | 36.71095 | 28.78964 | 13 ft | 14 kts | 195° |
| 2026-04-24 05:35 | 36.70997 | 28.78930 | 13 ft | 15 kts | 195° |
| 2026-04-24 05:35 | 36.70889 | 28.78892 | 13 ft | 17 kts | 195° |
| 2026-04-24 05:36 | 36.70771 | 28.78853 | 13 ft | 18 kts | 194° |
| 2026-04-24 05:36 | 36.70688 | 28.78826 | 13 ft | 19 kts | 194° |
| 2026-04-24 05:36 | 36.70554 | 28.78783 | 13 ft | 21 kts | 194° |
| 2026-04-24 05:36 | 36.70410 | 28.78733 | 13 ft | 22 kts | 195° |
| 2026-04-24 05:37 | 36.70256 | 28.78679 | 13 ft | 24 kts | 195° |
| 2026-04-24 05:37 | 36.70131 | 28.78637 | 13 ft | 11 kts | 192° |
| 2026-04-24 05:37 | 36.70058 | 28.78660 | 13 ft | 11 kts | 120° |
| 2026-04-24 05:37 | 36.70053 | 28.78690 | 13 ft | 0 kts | 95° |
| 2026-04-24 05:38 | 36.70053 | 28.78694 | 13 ft | 1 kts | 94° |
| 2026-04-24 05:38 | 36.70052 | 28.78711 | 13 ft | 3 kts | 92° |
| 2026-04-24 05:38 | 36.70053 | 28.78749 | 13 ft | 6 kts | 85° |
| 2026-04-24 05:38 | 36.70067 | 28.78803 | 13 ft | 7 kts | 59° |
| 2026-04-24 05:39 | 36.70114 | 28.78844 | 13 ft | 9 kts | 18° |
| 2026-04-24 05:39 | 36.70176 | 28.78864 | 13 ft | 10 kts | 15° |
| 2026-04-24 05:39 | 36.70333 | 28.78917 | 13 ft | 52 kts | 15° |
| 2026-04-24 05:39 | 36.70894 | 28.79107 | 13 ft | 110 kts | 15° |
| 2026-04-24 05:40 | 36.71769 | 28.79408 | 15 ft | 153 kts | 15° |
| 2026-04-24 05:40 | 36.72828 | 28.79724 | 536 ft | 152 kts | 7° |
| 2026-04-24 05:40 | 36.73908 | 28.79784 | 1065 ft | 158 kts | 359° |
| 2026-04-24 05:40 | 36.75008 | 28.79771 | 1661 ft | 159 kts | 360° |
| 2026-04-24 05:41 | 36.76164 | 28.79764 | 2021 ft | 176 kts | 0° |
| 2026-04-24 05:41 | 36.77467 | 28.79765 | 2299 ft | 199 kts | 0° |
| 2026-04-24 05:41 | 36.78937 | 28.79772 | 2599 ft | 224 kts | 359° |
| 2026-04-24 05:41 | 36.80515 | 28.79293 | 3014 ft | 249 kts | 332° |
| 2026-04-24 05:42 | 36.82044 | 28.78135 | 3625 ft | 261 kts | 328° |
| 2026-04-24 05:42 | 36.83604 | 28.76924 | 4425 ft | 267 kts | 328° |
| 2026-04-24 05:42 | 36.85193 | 28.75690 | 5243 ft | 271 kts | 327° |
| 2026-04-24 05:42 | 36.86801 | 28.74444 | 6086 ft | 273 kts | 327° |
| 2026-04-24 05:43 | 36.88423 | 28.73193 | 6922 ft | 275 kts | 326° |
| 2026-04-24 05:43 | 36.89922 | 28.71709 | 7666 ft | 276 kts | 312° |
| 2026-04-24 05:43 | 36.91063 | 28.69790 | 8150 ft | 275 kts | 300° |
| 2026-04-24 05:43 | 36.92074 | 28.67760 | 9020 ft | 275 kts | 300° |
| 2026-04-24 05:44 | 36.93101 | 28.65742 | 9866 ft | 275 kts | 300° |
| 2026-04-24 05:44 | 36.94152 | 28.63693 | 10343 ft | 288 kts | 300° |
| 2026-04-24 05:44 | 36.95274 | 28.61501 | 10486 ft | 311 kts | 300° |
| 2026-04-24 05:44 | 36.96478 | 28.59143 | 10618 ft | 332 kts | 300° |
| 2026-04-24 05:45 | 36.97738 | 28.56671 | 11025 ft | 341 kts | 300° |
| 2026-04-24 05:45 | 36.99024 | 28.54153 | 11658 ft | 344 kts | 300° |
| 2026-04-24 05:45 | 37.00313 | 28.51637 | 12321 ft | 345 kts | 299° |
| 2026-04-24 05:45 | 37.01610 | 28.49095 | 13000 ft | 346 kts | 299° |
| 2026-04-24 05:46 | 37.02903 | 28.46555 | 13692 ft | 347 kts | 298° |
| 2026-04-24 05:46 | 37.04205 | 28.43994 | 14275 ft | 349 kts | 298° |
| 2026-04-24 05:46 | 37.05506 | 28.41427 | 14832 ft | 351 kts | 298° |
| 2026-04-24 05:46 | 37.06820 | 28.38835 | 15335 ft | 354 kts | 298° |
| 2026-04-24 05:47 | 37.08330 | 28.36369 | 15847 ft | 362 kts | 308° |
| 2026-04-24 05:47 | 37.10200 | 28.34222 | 16372 ft | 367 kts | 313° |
| 2026-04-24 05:47 | 37.12144 | 28.32125 | 16907 ft | 370 kts | 313° |
| 2026-04-24 05:47 | 37.14093 | 28.30017 | 17414 ft | 372 kts | 313° |
| 2026-04-24 05:48 | 37.16063 | 28.27883 | 17943 ft | 375 kts | 312° |
| 2026-04-24 05:48 | 37.18049 | 28.25740 | 18451 ft | 378 kts | 312° |
| 2026-04-24 05:48 | 37.20052 | 28.23584 | 18906 ft | 380 kts | 312° |
| 2026-04-24 05:48 | 37.22067 | 28.21419 | 19342 ft | 383 kts | 312° |
| 2026-04-24 05:49 | 37.24093 | 28.19238 | 19812 ft | 385 kts | 312° |
| 2026-04-24 05:49 | 37.26131 | 28.17036 | 20296 ft | 387 kts | 312° |
| 2026-04-24 05:49 | 37.28173 | 28.14823 | 20759 ft | 389 kts | 312° |
| 2026-04-24 05:49 | 37.30226 | 28.12600 | 21172 ft | 391 kts | 312° |
| 2026-04-24 05:50 | 37.32293 | 28.10356 | 21600 ft | 393 kts | 312° |
| 2026-04-24 05:50 | 37.34360 | 28.08103 | 22018 ft | 395 kts | 312° |
| 2026-04-24 05:50 | 37.36441 | 28.05833 | 22474 ft | 397 kts | 311° |
| 2026-04-24 05:50 | 37.38536 | 28.03550 | 22870 ft | 400 kts | 311° |
| 2026-04-24 05:51 | 37.40646 | 28.01249 | 23237 ft | 402 kts | 311° |
| 2026-04-24 05:51 | 37.42762 | 27.98938 | 23627 ft | 405 kts | 311° |
| 2026-04-24 05:51 | 37.44889 | 27.96611 | 23959 ft | 406 kts | 311° |
| 2026-04-24 05:51 | 37.47028 | 27.94267 | 24299 ft | 408 kts | 311° |
| 2026-04-24 05:52 | 37.49176 | 27.91910 | 24636 ft | 410 kts | 311° |
| 2026-04-24 05:52 | 37.51330 | 27.89545 | 24975 ft | 411 kts | 311° |
| 2026-04-24 05:52 | 37.53487 | 27.87177 | 25277 ft | 413 kts | 311° |
| 2026-04-24 05:52 | 37.55655 | 27.84792 | 25615 ft | 414 kts | 311° |
| 2026-04-24 05:53 | 37.57829 | 27.82398 | 25944 ft | 416 kts | 311° |
| 2026-04-24 05:53 | 37.60011 | 27.79993 | 26372 ft | 415 kts | 311° |
| 2026-04-24 05:53 | 37.62180 | 27.77605 | 26843 ft | 413 kts | 311° |
| 2026-04-24 05:53 | 37.64313 | 27.75258 | 27322 ft | 411 kts | 310° |
| 2026-04-24 05:54 | 37.66494 | 27.72857 | 27818 ft | 410 kts | 310° |
| 2026-04-24 05:54 | 37.68609 | 27.70526 | 28287 ft | 408 kts | 310° |
| 2026-04-24 05:54 | 37.70770 | 27.68144 | 28772 ft | 406 kts | 310° |
| 2026-04-24 05:54 | 37.72869 | 27.65826 | 29290 ft | 405 kts | 310° |
| 2026-04-24 05:55 | 37.75000 | 27.63468 | 29888 ft | 400 kts | 310° |
| 2026-04-24 05:55 | 37.77090 | 27.61153 | 30361 ft | 397 kts | 310° |
| 2026-04-24 05:55 | 37.79165 | 27.58847 | 30754 ft | 397 kts | 310° |
| 2026-04-24 05:55 | 37.81235 | 27.56546 | 31115 ft | 397 kts | 309° |
| 2026-04-24 05:56 | 37.83309 | 27.54240 | 31472 ft | 397 kts | 309° |
| 2026-04-24 05:56 | 37.85379 | 27.51938 | 31836 ft | 397 kts | 309° |
| 2026-04-24 05:56 | 37.87451 | 27.49633 | 32195 ft | 397 kts | 309° |
| 2026-04-24 05:56 | 37.89525 | 27.47328 | 32570 ft | 397 kts | 310° |
| 2026-04-24 05:57 | 37.91614 | 27.45026 | 32870 ft | 399 kts | 310° |
| 2026-04-24 05:57 | 37.93714 | 27.42727 | 33205 ft | 400 kts | 310° |
| 2026-04-24 05:57 | 37.95819 | 27.40427 | 33539 ft | 400 kts | 310° |
| 2026-04-24 05:57 | 37.97928 | 27.38118 | 33879 ft | 400 kts | 310° |
| 2026-04-24 05:58 | 38.00032 | 27.35810 | 34161 ft | 401 kts | 310° |
| 2026-04-24 05:58 | 38.02142 | 27.33492 | 34453 ft | 401 kts | 311° |
| 2026-04-24 05:58 | 38.04254 | 27.31162 | 34608 ft | 404 kts | 311° |
| 2026-04-24 05:58 | 38.06379 | 27.28807 | 34799 ft | 406 kts | 311° |
| 2026-04-24 05:59 | 38.08476 | 27.26482 | 35025 ft | 406 kts | 312° |
| 2026-04-24 05:59 | 38.10637 | 27.24099 | 35280 ft | 407 kts | 312° |
| 2026-04-24 05:59 | 38.12752 | 27.21774 | 35541 ft | 407 kts | 312° |
| 2026-04-24 05:59 | 38.14918 | 27.19386 | 35783 ft | 407 kts | 313° |
| 2026-04-24 06:00 | 38.17031 | 27.17054 | 35974 ft | 408 kts | 313° |
| 2026-04-24 06:00 | 38.19186 | 27.14666 | 36004 ft | 414 kts | 313° |
| 2026-04-24 06:00 | 38.23614 | 27.09741 | 36004 ft | 425 kts | 313° |
| 2026-04-24 06:01 | 38.28070 | 27.04798 | 36002 ft | 429 kts | 313° |
| 2026-04-24 06:01 | 38.32577 | 26.99793 | 35974 ft | 431 kts | 314° |
| 2026-04-24 06:02 | 38.37114 | 26.94780 | 35981 ft | 432 kts | 315° |
| 2026-04-24 06:02 | 38.41670 | 26.89769 | 35986 ft | 433 kts | 315° |
| 2026-04-24 06:03 | 38.46232 | 26.84739 | 35997 ft | 433 kts | 315° |
| 2026-04-24 06:03 | 38.50785 | 26.79682 | 35998 ft | 434 kts | 315° |
| 2026-04-24 06:04 | 38.55342 | 26.74612 | 36001 ft | 435 kts | 315° |
| 2026-04-24 06:04 | 38.59910 | 26.69535 | 36015 ft | 435 kts | 316° |
| 2026-04-24 06:05 | 38.64481 | 26.64439 | 36010 ft | 437 kts | 316° |
| 2026-04-24 06:05 | 38.69066 | 26.59324 | 36013 ft | 437 kts | 316° |
| 2026-04-24 06:06 | 38.73660 | 26.54196 | 36008 ft | 438 kts | 317° |
| 2026-04-24 06:06 | 38.78255 | 26.49045 | 36013 ft | 439 kts | 317° |
| 2026-04-24 06:07 | 38.82858 | 26.43872 | 36019 ft | 440 kts | 316° |
| 2026-04-24 06:07 | 38.87526 | 26.38771 | 36030 ft | 441 kts | 318° |
| 2026-04-24 06:08 | 38.92287 | 26.33799 | 36025 ft | 442 kts | 320° |
| 2026-04-24 06:08 | 38.97055 | 26.28806 | 36033 ft | 442 kts | 319° |
| 2026-04-24 06:09 | 39.01795 | 26.23761 | 36029 ft | 442 kts | 319° |
| 2026-04-24 06:09 | 39.06521 | 26.18678 | 36033 ft | 443 kts | 319° |
| 2026-04-24 06:10 | 39.11255 | 26.13606 | 36052 ft | 443 kts | 320° |
| 2026-04-24 06:11 | 39.18365 | 26.06002 | 36058 ft | 443 kts | 320° |
| 2026-04-24 06:11 | 39.23102 | 26.00921 | 36041 ft | 443 kts | 320° |
| 2026-04-24 06:12 | 39.27846 | 25.95820 | 36051 ft | 443 kts | 320° |
| 2026-04-24 06:12 | 39.32567 | 25.90685 | 36038 ft | 444 kts | 320° |
| 2026-04-24 06:13 | 39.37244 | 25.85449 | 36041 ft | 445 kts | 319° |
| 2026-04-24 06:13 | 39.41887 | 25.80223 | 36045 ft | 446 kts | 320° |
| 2026-04-24 06:14 | 39.46584 | 25.74965 | 36042 ft | 446 kts | 320° |
| 2026-04-24 06:14 | 39.51286 | 25.69705 | 36051 ft | 447 kts | 320° |
| 2026-04-24 06:15 | 39.55990 | 25.64431 | 36053 ft | 447 kts | 320° |
| 2026-04-24 06:15 | 39.60688 | 25.59136 | 36052 ft | 448 kts | 320° |
| 2026-04-24 06:16 | 39.64629 | 25.54697 | 36046 ft | 448 kts | 320° |
| 2026-04-24 06:16 | 39.69339 | 25.49399 | 36052 ft | 448 kts | 320° |
| 2026-04-24 06:17 | 39.74046 | 25.44076 | 36054 ft | 448 kts | 320° |
| 2026-04-24 06:17 | 39.78746 | 25.38745 | 36058 ft | 448 kts | 320° |
| 2026-04-24 06:18 | 39.83434 | 25.33404 | 36065 ft | 448 kts | 320° |
| 2026-04-24 06:18 | 39.88117 | 25.28073 | 36050 ft | 446 kts | 320° |
| 2026-04-24 06:19 | 39.92591 | 25.22490 | 36056 ft | 446 kts | 309° |
| 2026-04-24 06:19 | 39.96209 | 25.15915 | 36058 ft | 446 kts | 307° |
| 2026-04-24 06:20 | 39.99791 | 25.09297 | 36052 ft | 446 kts | 306° |
| 2026-04-24 06:20 | 40.03355 | 25.02691 | 36061 ft | 446 kts | 306° |
| 2026-04-24 06:21 | 40.06899 | 24.96113 | 36061 ft | 445 kts | 307° |
| 2026-04-24 06:21 | 40.10471 | 24.89509 | 36064 ft | 445 kts | 307° |
| 2026-04-24 06:22 | 40.14037 | 24.82910 | 36059 ft | 445 kts | 307° |
| 2026-04-24 06:22 | 40.17594 | 24.76290 | 36066 ft | 444 kts | 306° |
| 2026-04-24 06:23 | 40.21135 | 24.69662 | 36065 ft | 444 kts | 306° |
| 2026-04-24 06:23 | 40.24702 | 24.62990 | 36058 ft | 444 kts | 306° |
| 2026-04-24 06:24 | 40.28215 | 24.56395 | 36057 ft | 444 kts | 306° |
| 2026-04-24 06:24 | 40.31747 | 24.49746 | 36061 ft | 444 kts | 306° |
| 2026-04-24 06:25 | 40.35285 | 24.43102 | 36060 ft | 444 kts | 306° |
| 2026-04-24 06:25 | 40.38811 | 24.36445 | 36053 ft | 444 kts | 306° |
| 2026-04-24 06:26 | 40.42321 | 24.29775 | 36057 ft | 444 kts | 306° |
| 2026-04-24 06:26 | 40.45849 | 24.23102 | 36056 ft | 445 kts | 306° |
| 2026-04-24 06:27 | 40.49381 | 24.16423 | 36059 ft | 445 kts | 306° |
| 2026-04-24 06:27 | 40.52898 | 24.09737 | 36059 ft | 445 kts | 306° |
| 2026-04-24 06:28 | 40.56403 | 24.03036 | 36054 ft | 445 kts | 306° |
| 2026-04-24 06:28 | 40.59901 | 23.96321 | 36058 ft | 445 kts | 306° |
| 2026-04-24 06:29 | 40.63421 | 23.89594 | 36063 ft | 446 kts | 306° |
| 2026-04-24 06:29 | 40.66930 | 23.82865 | 36066 ft | 446 kts | 306° |
| 2026-04-24 06:30 | 40.70426 | 23.76123 | 36065 ft | 446 kts | 306° |
| 2026-04-24 06:30 | 40.73920 | 23.69376 | 36060 ft | 446 kts | 306° |
| 2026-04-24 06:31 | 40.77420 | 23.62614 | 36064 ft | 446 kts | 306° |
| 2026-04-24 06:31 | 40.80910 | 23.55847 | 36068 ft | 446 kts | 306° |
| 2026-04-24 06:32 | 40.84397 | 23.49075 | 36066 ft | 446 kts | 306° |
| 2026-04-24 06:32 | 40.87885 | 23.42288 | 36056 ft | 446 kts | 306° |
| 2026-04-24 06:33 | 40.91365 | 23.35504 | 36066 ft | 446 kts | 307° |
| 2026-04-24 06:33 | 40.94847 | 23.28692 | 36068 ft | 446 kts | 306° |
| 2026-04-24 06:34 | 40.98312 | 23.21898 | 36069 ft | 445 kts | 306° |
| 2026-04-24 06:34 | 41.01780 | 23.15105 | 36071 ft | 445 kts | 307° |
| 2026-04-24 06:35 | 41.05243 | 23.08304 | 36059 ft | 445 kts | 307° |
| 2026-04-24 06:35 | 41.08757 | 23.01559 | 36068 ft | 442 kts | 313° |
| 2026-04-24 06:36 | 41.13285 | 22.96185 | 36072 ft | 435 kts | 329° |
| 2026-04-24 06:36 | 41.18363 | 22.91818 | 36067 ft | 435 kts | 329° |
| 2026-04-24 06:37 | 41.23434 | 22.87428 | 36065 ft | 435 kts | 329° |
| 2026-04-24 06:37 | 41.28504 | 22.83043 | 36065 ft | 434 kts | 332° |
| 2026-04-24 06:38 | 41.34045 | 22.80261 | 36063 ft | 428 kts | 352° |
| 2026-04-24 06:38 | 41.39947 | 22.80128 | 36074 ft | 425 kts | 7° |
| 2026-04-24 06:39 | 41.45827 | 22.80983 | 36072 ft | 425 kts | 7° |
| 2026-04-24 06:39 | 41.51701 | 22.81830 | 36067 ft | 425 kts | 6° |
| 2026-04-24 06:40 | 41.57582 | 22.82673 | 36074 ft | 425 kts | 6° |
| 2026-04-24 06:40 | 41.63459 | 22.83517 | 36076 ft | 425 kts | 6° |
| 2026-04-24 06:41 | 41.69336 | 22.84366 | 36072 ft | 424 kts | 6° |
| 2026-04-24 06:41 | 41.75206 | 22.85216 | 36075 ft | 424 kts | 6° |
| 2026-04-24 06:42 | 41.81071 | 22.86060 | 36078 ft | 424 kts | 6° |
| 2026-04-24 06:42 | 41.86934 | 22.86907 | 36079 ft | 423 kts | 6° |
| 2026-04-24 06:43 | 41.92779 | 22.87896 | 36084 ft | 423 kts | 13° |
| 2026-04-24 06:43 | 41.98175 | 22.90955 | 36076 ft | 423 kts | 33° |
| 2026-04-24 06:44 | 42.02582 | 22.96199 | 36079 ft | 425 kts | 43° |
| 2026-04-24 06:44 | 42.06781 | 23.01810 | 36074 ft | 425 kts | 43° |
| 2026-04-24 06:45 | 42.10981 | 23.07421 | 36083 ft | 425 kts | 43° |
| 2026-04-24 06:45 | 42.15169 | 23.13028 | 36089 ft | 425 kts | 43° |
| 2026-04-24 06:46 | 42.19360 | 23.18651 | 36081 ft | 425 kts | 43° |
| 2026-04-24 06:46 | 42.23551 | 23.24291 | 36074 ft | 425 kts | 43° |
| 2026-04-24 06:47 | 42.27738 | 23.29935 | 36074 ft | 425 kts | 43° |
| 2026-04-24 06:47 | 42.31966 | 23.35510 | 36074 ft | 424 kts | 37° |
| 2026-04-24 06:48 | 42.37078 | 23.39309 | 36068 ft | 420 kts | 17° |
| 2026-04-24 06:48 | 42.42829 | 23.40320 | 36064 ft | 419 kts | 358° |
| 2026-04-24 06:49 | 42.48667 | 23.40006 | 36064 ft | 420 kts | 359° |
| 2026-04-24 06:49 | 42.54517 | 23.39718 | 36066 ft | 420 kts | 359° |
| 2026-04-24 06:50 | 42.60362 | 23.39425 | 36074 ft | 420 kts | 359° |
| 2026-04-24 06:50 | 42.66201 | 23.39123 | 36073 ft | 420 kts | 359° |
| 2026-04-24 06:51 | 42.72032 | 23.38768 | 36077 ft | 419 kts | 357° |
| 2026-04-24 06:51 | 42.77858 | 23.38079 | 36081 ft | 419 kts | 355° |
| 2026-04-24 06:52 | 42.83656 | 23.37277 | 36079 ft | 419 kts | 355° |
| 2026-04-24 06:52 | 42.89455 | 23.36528 | 36063 ft | 418 kts | 356° |
| 2026-04-24 06:53 | 42.94278 | 23.35953 | 36058 ft | 418 kts | 356° |
| 2026-04-24 06:53 | 43.00072 | 23.35266 | 36060 ft | 418 kts | 356° |
| 2026-04-24 06:54 | 43.05860 | 23.34569 | 36052 ft | 417 kts | 356° |
| 2026-04-24 06:54 | 43.11635 | 23.33869 | 36047 ft | 417 kts | 356° |
| 2026-04-24 06:55 | 43.17406 | 23.33056 | 36055 ft | 417 kts | 350° |
| 2026-04-24 06:55 | 43.22806 | 23.30158 | 36048 ft | 422 kts | 330° |
| 2026-04-24 06:56 | 43.27297 | 23.24909 | 36022 ft | 426 kts | 320° |
| 2026-04-24 06:56 | 43.31570 | 23.19257 | 36026 ft | 427 kts | 320° |
| 2026-04-24 06:57 | 43.35852 | 23.13591 | 36028 ft | 427 kts | 320° |
| 2026-04-24 06:57 | 43.40127 | 23.07917 | 36030 ft | 427 kts | 320° |
| 2026-04-24 06:58 | 43.44405 | 23.02236 | 36019 ft | 428 kts | 320° |
| 2026-04-24 06:58 | 43.48688 | 22.96536 | 36022 ft | 428 kts | 320° |
| 2026-04-24 06:59 | 43.52975 | 22.90822 | 36021 ft | 429 kts | 320° |
| 2026-04-24 06:59 | 43.57258 | 22.85081 | 36025 ft | 429 kts | 320° |
| 2026-04-24 07:00 | 43.61537 | 22.79339 | 36007 ft | 429 kts | 320° |
| 2026-04-24 07:00 | 43.65817 | 22.73595 | 36030 ft | 429 kts | 320° |
| 2026-04-24 07:01 | 43.70106 | 22.67837 | 36039 ft | 430 kts | 320° |
| 2026-04-24 07:01 | 43.74421 | 22.62023 | 36044 ft | 430 kts | 320° |
| 2026-04-24 07:02 | 43.78674 | 22.56265 | 36040 ft | 431 kts | 320° |
| 2026-04-24 07:02 | 43.82954 | 22.50460 | 36024 ft | 431 kts | 320° |
| 2026-04-24 07:03 | 43.87344 | 22.44768 | 36023 ft | 426 kts | 328° |
| 2026-04-24 07:03 | 43.89830 | 22.42680 | 36027 ft | 420 kts | 339° |
| 2026-04-24 07:03 | 43.92557 | 22.41292 | 36025 ft | 415 kts | 349° |
| 2026-04-24 07:04 | 43.98232 | 22.40733 | 36031 ft | 408 kts | 9° |
| 2026-04-24 07:04 | 44.03848 | 22.41925 | 36025 ft | 408 kts | 10° |
| 2026-04-24 07:05 | 44.09472 | 22.43142 | 36021 ft | 409 kts | 10° |
| 2026-04-24 07:05 | 44.15092 | 22.44357 | 36025 ft | 409 kts | 10° |
| 2026-04-24 07:06 | 44.20717 | 22.45574 | 36024 ft | 408 kts | 10° |
| 2026-04-24 07:06 | 44.26331 | 22.46786 | 36020 ft | 408 kts | 10° |
| 2026-04-24 07:07 | 44.31944 | 22.48008 | 36022 ft | 408 kts | 10° |
| 2026-04-24 07:07 | 44.40367 | 22.49840 | 36016 ft | 408 kts | 10° |
| 2026-04-24 07:08 | 44.45980 | 22.51060 | 36015 ft | 408 kts | 10° |
| 2026-04-24 07:08 | 44.51589 | 22.52296 | 36012 ft | 408 kts | 10° |
| 2026-04-24 07:09 | 44.57197 | 22.53525 | 36006 ft | 408 kts | 10° |
| 2026-04-24 07:09 | 44.62800 | 22.54753 | 36009 ft | 408 kts | 10° |
| 2026-04-24 07:10 | 44.68413 | 22.55998 | 36009 ft | 408 kts | 10° |
| 2026-04-24 07:10 | 44.73984 | 22.57231 | 36011 ft | 408 kts | 10° |
| 2026-04-24 07:11 | 44.79593 | 22.58466 | 35997 ft | 408 kts | 10° |
| 2026-04-24 07:11 | 44.85193 | 22.59707 | 35989 ft | 408 kts | 11° |
| 2026-04-24 07:12 | 44.90797 | 22.60956 | 36001 ft | 407 kts | 11° |
| 2026-04-24 07:12 | 44.96391 | 22.62200 | 36005 ft | 407 kts | 11° |
| 2026-04-24 07:13 | 45.01974 | 22.63440 | 35996 ft | 406 kts | 11° |
| 2026-04-24 07:13 | 45.07543 | 22.64687 | 35995 ft | 405 kts | 11° |
| 2026-04-24 07:14 | 45.13109 | 22.65926 | 36020 ft | 404 kts | 10° |
| 2026-04-24 07:14 | 45.18648 | 22.67162 | 36022 ft | 402 kts | 10° |
| 2026-04-24 07:15 | 45.24210 | 22.68410 | 36012 ft | 401 kts | 11° |
| 2026-04-24 07:15 | 45.29717 | 22.69651 | 36020 ft | 401 kts | 11° |
| 2026-04-24 07:16 | 45.35184 | 22.70882 | 36019 ft | 399 kts | 11° |
| 2026-04-24 07:16 | 45.40660 | 22.72117 | 36027 ft | 398 kts | 11° |
| 2026-04-24 07:17 | 45.46125 | 22.73357 | 36027 ft | 397 kts | 11° |
| 2026-04-24 07:17 | 45.51578 | 22.74601 | 36003 ft | 397 kts | 11° |
| 2026-04-24 07:18 | 45.57036 | 22.75841 | 36016 ft | 397 kts | 11° |
| 2026-04-24 07:18 | 45.62485 | 22.77078 | 36024 ft | 397 kts | 11° |
| 2026-04-24 07:19 | 45.67945 | 22.78314 | 36028 ft | 397 kts | 11° |
| 2026-04-24 07:19 | 45.73388 | 22.79563 | 36035 ft | 396 kts | 11° |
| 2026-04-24 07:20 | 45.78837 | 22.80817 | 36033 ft | 396 kts | 11° |
| 2026-04-24 07:20 | 45.84274 | 22.82063 | 36033 ft | 395 kts | 11° |
| 2026-04-24 07:21 | 45.89708 | 22.83306 | 36052 ft | 395 kts | 11° |
| 2026-04-24 07:21 | 45.95132 | 22.84557 | 36048 ft | 394 kts | 10° |
| 2026-04-24 07:22 | 46.00547 | 22.85808 | 36043 ft | 394 kts | 10° |
| 2026-04-24 07:22 | 46.05958 | 22.87066 | 36042 ft | 394 kts | 11° |
| 2026-04-24 07:23 | 46.11365 | 22.88315 | 36056 ft | 393 kts | 10° |
| 2026-04-24 07:23 | 46.16760 | 22.89560 | 36045 ft | 392 kts | 10° |
| 2026-04-24 07:24 | 46.22116 | 22.90804 | 36022 ft | 391 kts | 10° |
| 2026-04-24 07:24 | 46.27493 | 22.92055 | 36028 ft | 391 kts | 10° |
| 2026-04-24 07:25 | 46.32865 | 22.93314 | 36051 ft | 391 kts | 10° |
| 2026-04-24 07:25 | 46.38228 | 22.94575 | 36046 ft | 389 kts | 10° |
| 2026-04-24 07:26 | 46.43569 | 22.95835 | 36041 ft | 388 kts | 10° |
| 2026-04-24 07:26 | 46.48896 | 22.97090 | 36036 ft | 388 kts | 10° |
| 2026-04-24 07:27 | 46.54226 | 22.98338 | 36038 ft | 387 kts | 10° |
| 2026-04-24 07:27 | 46.59548 | 22.99587 | 36034 ft | 387 kts | 10° |
| 2026-04-24 07:28 | 46.64861 | 23.00839 | 36028 ft | 387 kts | 10° |
| 2026-04-24 07:28 | 46.70176 | 23.02100 | 36035 ft | 387 kts | 10° |
| 2026-04-24 07:29 | 46.75494 | 23.03367 | 36029 ft | 387 kts | 10° |
| 2026-04-24 07:29 | 46.80810 | 23.04632 | 36042 ft | 387 kts | 10° |
| 2026-04-24 07:30 | 46.86130 | 23.05904 | 36041 ft | 387 kts | 10° |
| 2026-04-24 07:30 | 46.91452 | 23.07172 | 36010 ft | 388 kts | 10° |
| 2026-04-24 07:31 | 46.96774 | 23.08442 | 36015 ft | 388 kts | 10° |
| 2026-04-24 07:31 | 47.01239 | 23.09513 | 36020 ft | 388 kts | 10° |
| 2026-04-24 07:32 | 47.06570 | 23.10798 | 36025 ft | 388 kts | 10° |
| 2026-04-24 07:32 | 47.11899 | 23.12080 | 36031 ft | 388 kts | 10° |
| 2026-04-24 07:33 | 47.17235 | 23.13362 | 36037 ft | 388 kts | 9° |
| 2026-04-24 07:33 | 47.22566 | 23.14652 | 36037 ft | 388 kts | 9° |
| 2026-04-24 07:34 | 47.27859 | 23.15932 | 36040 ft | 388 kts | 9° |
| 2026-04-24 07:34 | 47.33185 | 23.17218 | 36036 ft | 388 kts | 9° |
| 2026-04-24 07:35 | 47.38544 | 23.18522 | 36052 ft | 388 kts | 9° |
| 2026-04-24 07:35 | 47.43824 | 23.19812 | 36048 ft | 387 kts | 9° |
| 2026-04-24 07:36 | 47.49139 | 23.21107 | 36038 ft | 387 kts | 9° |
| 2026-04-24 07:36 | 47.54450 | 23.22405 | 36037 ft | 387 kts | 9° |
| 2026-04-24 07:37 | 47.59749 | 23.23704 | 36053 ft | 386 kts | 9° |
| 2026-04-24 07:37 | 47.65055 | 23.25006 | 36023 ft | 386 kts | 9° |
| 2026-04-24 07:38 | 47.70347 | 23.26308 | 36026 ft | 386 kts | 9° |
| 2026-04-24 07:38 | 47.75647 | 23.27618 | 36023 ft | 386 kts | 9° |
| 2026-04-24 07:39 | 47.80984 | 23.28933 | 36050 ft | 386 kts | 9° |
| 2026-04-24 07:39 | 47.86285 | 23.30243 | 36049 ft | 386 kts | 9° |
| 2026-04-24 07:40 | 47.91589 | 23.31558 | 36041 ft | 385 kts | 9° |
| 2026-04-24 07:40 | 47.96874 | 23.32873 | 36038 ft | 385 kts | 9° |
| 2026-04-24 07:41 | 48.02137 | 23.34090 | 36058 ft | 384 kts | 4° |
| 2026-04-24 07:41 | 48.07474 | 23.33629 | 36040 ft | 385 kts | 356° |
| 2026-04-24 07:42 | 48.12800 | 23.32827 | 36036 ft | 384 kts | 356° |
| 2026-04-24 07:42 | 48.18120 | 23.32040 | 36038 ft | 384 kts | 356° |
| 2026-04-24 07:43 | 48.23441 | 23.31252 | 36029 ft | 384 kts | 356° |
| 2026-04-24 07:43 | 48.28759 | 23.30461 | 36024 ft | 384 kts | 356° |
| 2026-04-24 07:44 | 48.34078 | 23.29669 | 36033 ft | 384 kts | 356° |
| 2026-04-24 07:44 | 48.39394 | 23.28877 | 36032 ft | 384 kts | 356° |
| 2026-04-24 07:45 | 48.44744 | 23.28069 | 36037 ft | 384 kts | 356° |
| 2026-04-24 07:45 | 48.50056 | 23.27267 | 36052 ft | 383 kts | 356° |
| 2026-04-24 07:46 | 48.55318 | 23.26478 | 36054 ft | 382 kts | 356° |
| 2026-04-24 07:46 | 48.60611 | 23.25688 | 36042 ft | 381 kts | 356° |
| 2026-04-24 07:47 | 48.65879 | 23.24894 | 36037 ft | 381 kts | 356° |
| 2026-04-24 07:47 | 48.71164 | 23.24083 | 36009 ft | 382 kts | 356° |
| 2026-04-24 07:48 | 48.76447 | 23.23282 | 36011 ft | 381 kts | 356° |
| 2026-04-24 07:48 | 48.81732 | 23.22488 | 36018 ft | 382 kts | 356° |
| 2026-04-24 07:49 | 48.87016 | 23.21686 | 36026 ft | 382 kts | 356° |
| 2026-04-24 07:49 | 48.92301 | 23.20878 | 36031 ft | 382 kts | 356° |
| 2026-04-24 07:50 | 48.97591 | 23.20067 | 36045 ft | 382 kts | 356° |
| 2026-04-24 07:50 | 49.02880 | 23.19252 | 36044 ft | 381 kts | 356° |
| 2026-04-24 07:51 | 49.08151 | 23.18441 | 36046 ft | 381 kts | 356° |
| 2026-04-24 07:51 | 49.13430 | 23.17632 | 36046 ft | 381 kts | 356° |
| 2026-04-24 07:52 | 49.18701 | 23.16822 | 36013 ft | 381 kts | 356° |
| 2026-04-24 07:52 | 49.23982 | 23.16004 | 36007 ft | 381 kts | 355° |
| 2026-04-24 07:53 | 49.29265 | 23.15183 | 36021 ft | 382 kts | 355° |
| 2026-04-24 07:53 | 49.34559 | 23.14360 | 36019 ft | 383 kts | 355° |
| 2026-04-24 07:54 | 49.39866 | 23.13539 | 36033 ft | 383 kts | 355° |
| 2026-04-24 07:54 | 49.45168 | 23.12712 | 36037 ft | 383 kts | 355° |
| 2026-04-24 07:55 | 49.50478 | 23.11880 | 36049 ft | 383 kts | 355° |
| 2026-04-24 07:55 | 49.55786 | 23.11051 | 36037 ft | 383 kts | 355° |
| 2026-04-24 07:56 | 49.61093 | 23.10215 | 36040 ft | 383 kts | 355° |
| 2026-04-24 07:56 | 49.66403 | 23.09383 | 36009 ft | 384 kts | 355° |
| 2026-04-24 07:57 | 49.71724 | 23.08539 | 35791 ft | 385 kts | 355° |
| 2026-04-24 07:57 | 49.74390 | 23.08115 | 35539 ft | 384 kts | 355° |
| 2026-04-24 07:57 | 49.77054 | 23.07693 | 35286 ft | 384 kts | 355° |
| 2026-04-24 07:58 | 49.79713 | 23.07275 | 35038 ft | 384 kts | 355° |
| 2026-04-24 07:58 | 49.82370 | 23.06855 | 34793 ft | 384 kts | 355° |
| 2026-04-24 07:58 | 49.85034 | 23.06430 | 34550 ft | 385 kts | 355° |
| 2026-04-24 07:58 | 49.87695 | 23.06004 | 34308 ft | 385 kts | 355° |
| 2026-04-24 07:59 | 49.90367 | 23.05648 | 34066 ft | 385 kts | 357° |
| 2026-04-24 07:59 | 49.93040 | 23.05467 | 33796 ft | 385 kts | 359° |
| 2026-04-24 07:59 | 49.95721 | 23.05395 | 33544 ft | 386 kts | 360° |
| 2026-04-24 07:59 | 49.98402 | 23.05368 | 33268 ft | 385 kts | 360° |
| 2026-04-24 08:00 | 50.01083 | 23.05339 | 33001 ft | 385 kts | 360° |
| 2026-04-24 08:00 | 50.03729 | 23.05290 | 32743 ft | 386 kts | 359° |
| 2026-04-24 08:00 | 50.06417 | 23.05217 | 32470 ft | 386 kts | 359° |
| 2026-04-24 08:00 | 50.09104 | 23.05126 | 32208 ft | 387 kts | 359° |
| 2026-04-24 08:01 | 50.11839 | 23.05024 | 31945 ft | 388 kts | 359° |
| 2026-04-24 08:01 | 50.14541 | 23.04919 | 31688 ft | 389 kts | 359° |
| 2026-04-24 08:01 | 50.17215 | 23.04813 | 31429 ft | 390 kts | 359° |
| 2026-04-24 08:01 | 50.19936 | 23.04708 | 31166 ft | 391 kts | 359° |
| 2026-04-24 08:02 | 50.22678 | 23.04365 | 30953 ft | 391 kts | 351° |
| 2026-04-24 08:02 | 50.25316 | 23.03302 | 30705 ft | 393 kts | 343° |
| 2026-04-24 08:02 | 50.27821 | 23.01550 | 29967 ft | 399 kts | 335° |
| 2026-04-24 08:02 | 50.30270 | 22.99445 | 28809 ft | 405 kts | 335° |
| 2026-04-24 08:03 | 50.32742 | 22.97291 | 27732 ft | 408 kts | 335° |
| 2026-04-24 08:03 | 50.35228 | 22.95112 | 26720 ft | 411 kts | 334° |
| 2026-04-24 08:03 | 50.37698 | 22.92940 | 26097 ft | 404 kts | 335° |
| 2026-04-24 08:03 | 50.40133 | 22.90801 | 25379 ft | 399 kts | 335° |
| 2026-04-24 08:04 | 50.42546 | 22.88687 | 24660 ft | 395 kts | 335° |
| 2026-04-24 08:04 | 50.44936 | 22.86604 | 23958 ft | 391 kts | 335° |
| 2026-04-24 08:04 | 50.47281 | 22.84566 | 23217 ft | 388 kts | 335° |
| 2026-04-24 08:04 | 50.49635 | 22.82517 | 22505 ft | 383 kts | 335° |
| 2026-04-24 08:05 | 50.51945 | 22.80501 | 21830 ft | 378 kts | 334° |
| 2026-04-24 08:05 | 50.54226 | 22.78505 | 21168 ft | 373 kts | 334° |
| 2026-04-24 08:05 | 50.56481 | 22.76526 | 20521 ft | 368 kts | 334° |
| 2026-04-24 08:05 | 50.58707 | 22.74568 | 19893 ft | 365 kts | 334° |
| 2026-04-24 08:06 | 50.60911 | 22.72630 | 19291 ft | 361 kts | 334° |
| 2026-04-24 08:06 | 50.63099 | 22.70712 | 18710 ft | 359 kts | 334° |
| 2026-04-24 08:06 | 50.65266 | 22.68794 | 18131 ft | 356 kts | 333° |
| 2026-04-24 08:06 | 50.67408 | 22.66866 | 17543 ft | 353 kts | 333° |
| 2026-04-24 08:07 | 50.69528 | 22.64942 | 16990 ft | 348 kts | 333° |
| 2026-04-24 08:07 | 50.71606 | 22.63051 | 16443 ft | 344 kts | 332° |
| 2026-04-24 08:07 | 50.73668 | 22.61176 | 15892 ft | 340 kts | 332° |
| 2026-04-24 08:07 | 50.75706 | 22.59323 | 15336 ft | 336 kts | 332° |
| 2026-04-24 08:08 | 50.77728 | 22.57486 | 14770 ft | 334 kts | 332° |
| 2026-04-24 08:08 | 50.79739 | 22.55659 | 14214 ft | 332 kts | 332° |
| 2026-04-24 08:08 | 50.81711 | 22.53854 | 13980 ft | 321 kts | 332° |
| 2026-04-24 08:09 | 50.85408 | 22.50456 | 13733 ft | 295 kts | 332° |
| 2026-04-24 08:09 | 50.87147 | 22.48859 | 13597 ft | 284 kts | 332° |
| 2026-04-24 08:09 | 50.88883 | 22.47507 | 13405 ft | 275 kts | 341° |
| 2026-04-24 08:09 | 50.90693 | 22.46611 | 13146 ft | 270 kts | 343° |
| 2026-04-24 08:10 | 50.92520 | 22.46044 | 12882 ft | 268 kts | 0° |
| 2026-04-24 08:10 | 50.94318 | 22.46796 | 12620 ft | 274 kts | 26° |
| 2026-04-24 08:10 | 50.95312 | 22.48052 | 12450 ft | 281 kts | 44° |
| 2026-04-24 08:10 | 50.96228 | 22.50850 | 12184 ft | 294 kts | 67° |
| 2026-04-24 08:11 | 50.96804 | 22.53977 | 11882 ft | 296 kts | 68° |
| 2026-04-24 08:11 | 50.97366 | 22.57133 | 11454 ft | 298 kts | 68° |
| 2026-04-24 08:11 | 50.97948 | 22.60290 | 11090 ft | 295 kts | 64° |
| 2026-04-24 08:11 | 50.98858 | 22.63164 | 10675 ft | 289 kts | 49° |
| 2026-04-24 08:12 | 51.00159 | 22.65502 | 10416 ft | 279 kts | 36° |
| 2026-04-24 08:12 | 51.01640 | 22.67481 | 10071 ft | 278 kts | 35° |
| 2026-04-24 08:12 | 51.03116 | 22.69451 | 9751 ft | 276 kts | 35° |
| 2026-04-24 08:12 | 51.04576 | 22.71406 | 9329 ft | 273 kts | 35° |
| 2026-04-24 08:13 | 51.06021 | 22.73347 | 8794 ft | 271 kts | 35° |
| 2026-04-24 08:13 | 51.07457 | 22.75280 | 8300 ft | 268 kts | 35° |
| 2026-04-24 08:13 | 51.08851 | 22.77157 | 8165 ft | 258 kts | 35° |
| 2026-04-24 08:13 | 51.10202 | 22.78978 | 8027 ft | 250 kts | 34° |
| 2026-04-24 08:14 | 51.11505 | 22.80739 | 7902 ft | 243 kts | 34° |
| 2026-04-24 08:14 | 51.12774 | 22.82453 | 7759 ft | 236 kts | 34° |
| 2026-04-24 08:14 | 51.14006 | 22.84116 | 7642 ft | 228 kts | 34° |
| 2026-04-24 08:14 | 51.15202 | 22.85726 | 7524 ft | 221 kts | 33° |
| 2026-04-24 08:15 | 51.16358 | 22.87281 | 7346 ft | 215 kts | 33° |
| 2026-04-24 08:15 | 51.17387 | 22.89027 | 7090 ft | 220 kts | 48° |
| 2026-04-24 08:15 | 51.18222 | 22.91071 | 6819 ft | 220 kts | 49° |
| 2026-04-24 08:15 | 51.19172 | 22.92913 | 6569 ft | 209 kts | 30° |
| 2026-04-24 08:16 | 51.20435 | 22.93893 | 6274 ft | 199 kts | 7° |
| 2026-04-24 08:16 | 51.21790 | 22.93932 | 5951 ft | 194 kts | 346° |
| 2026-04-24 08:16 | 51.23017 | 22.93096 | 5652 ft | 192 kts | 325° |
| 2026-04-24 08:16 | 51.23969 | 22.91647 | 5280 ft | 190 kts | 316° |
| 2026-04-24 08:17 | 51.24856 | 22.90150 | 5116 ft | 178 kts | 316° |
| 2026-04-24 08:17 | 51.25629 | 22.88623 | 4771 ft | 179 kts | 302° |
| 2026-04-24 08:17 | 51.26024 | 22.86675 | 4262 ft | 192 kts | 280° |
| 2026-04-24 08:17 | 51.25908 | 22.84509 | 3826 ft | 206 kts | 261° |
| 2026-04-24 08:18 | 51.25593 | 22.82316 | 3797 ft | 192 kts | 268° |
| 2026-04-24 08:18 | 51.25807 | 22.80401 | 3784 ft | 173 kts | 306° |
| 2026-04-24 08:18 | 51.26659 | 22.79086 | 3674 ft | 172 kts | 332° |
| 2026-04-24 08:18 | 51.27841 | 22.78795 | 3471 ft | 175 kts | 4° |
| 2026-04-24 08:19 | 51.29031 | 22.79241 | 3256 ft | 178 kts | 20° |
| 2026-04-24 08:19 | 51.29924 | 22.80632 | 3034 ft | 189 kts | 62° |
| 2026-04-24 08:19 | 51.30353 | 22.82636 | 2843 ft | 192 kts | 68° |
| 2026-04-24 08:19 | 51.30753 | 22.84693 | 2635 ft | 195 kts | 68° |
| 2026-04-24 08:20 | 51.31154 | 22.86767 | 2429 ft | 197 kts | 68° |
| 2026-04-24 08:20 | 51.31536 | 22.88867 | 2210 ft | 198 kts | 76° |
| 2026-04-24 08:20 | 51.31420 | 22.91052 | 2041 ft | 200 kts | 112° |
| 2026-04-24 08:20 | 51.30588 | 22.92790 | 2009 ft | 197 kts | 147° |
| 2026-04-24 08:21 | 51.29327 | 22.93540 | 2005 ft | 193 kts | 180° |
| 2026-04-24 08:21 | 51.28046 | 22.93156 | 2011 ft | 186 kts | 212° |
| 2026-04-24 08:21 | 51.27096 | 22.91850 | 2009 ft | 179 kts | 242° |
| 2026-04-24 08:21 | 51.26660 | 22.90001 | 2020 ft | 178 kts | 261° |
| 2026-04-24 08:22 | 51.26393 | 22.88082 | 2007 ft | 179 kts | 262° |
| 2026-04-24 08:22 | 51.26119 | 22.86138 | 2020 ft | 173 kts | 261° |
| 2026-04-24 08:22 | 51.25873 | 22.84418 | 2008 ft | 151 kts | 261° |
| 2026-04-24 08:22 | 51.25650 | 22.82849 | 1888 ft | 139 kts | 263° |
| 2026-04-24 08:23 | 51.25442 | 22.81376 | 1730 ft | 134 kts | 263° |
| 2026-04-24 08:23 | 51.25235 | 22.79941 | 1532 ft | 132 kts | 262° |
| 2026-04-24 08:23 | 51.25035 | 22.78510 | 1372 ft | 132 kts | 262° |
| 2026-04-24 08:23 | 51.24824 | 22.77067 | 1173 ft | 134 kts | 262° |
| 2026-04-24 08:24 | 51.24618 | 22.75632 | 989 ft | 130 kts | 265° |
| 2026-04-24 08:24 | 51.24433 | 22.74222 | 807 ft | 130 kts | 261° |
| 2026-04-24 08:24 | 51.24225 | 22.72818 | 650 ft | 127 kts | 261° |
| 2026-04-24 08:24 | 51.24066 | 22.71692 | 644 ft | 68 kts | 257° |
| 2026-04-24 08:25 | 51.24004 | 22.71359 | 647 ft | 10 kts | 197° |
| 2026-04-24 08:25 | 51.23963 | 22.71364 | 646 ft | 13 kts | 167° |
| 2026-04-24 08:25 | 51.23873 | 22.71406 | 650 ft | 12 kts | 165° |
| 2026-04-24 08:25 | 51.23816 | 22.71427 | 653 ft | 6 kts | 168° |
| 2026-04-24 08:26 | 51.23775 | 22.71441 | 654 ft | 7 kts | 168° |
| 2026-04-24 08:26 | 51.23733 | 22.71486 | 653 ft | 8 kts | 107° |
| 2026-04-24 08:26 | 51.23732 | 22.71498 | 653 ft | 0 kts | 99° |
| 2026-04-24 08:26 | 51.23731 | 22.71508 | 653 ft | 2 kts | 98° |
| 2026-04-24 08:27 | 51.23737 | 22.71544 | 653 ft | 5 kts | 72° |
| 2026-04-24 08:27 | 51.23723 | 22.71579 | 654 ft | 5 kts | 163° |
| 2026-04-24 08:27 | 51.23692 | 22.71588 | 653 ft | 2 kts | 168° |
| 2026-04-24 08:27 | 51.23675 | 22.71594 | 653 ft | 2 kts | 167° |
| 2026-04-24 08:28 | 51.23668 | 22.71596 | 653 ft | 1 kts | 167° |
| 2026-04-24 08:28 | 51.23667 | 22.71597 | 653 ft | 0 kts | 167° |